Hamilton Park, Indiana
Current Conditions -  °F | °C
As of 2:53 PM on Sunday 23 Nov 2014 (Local Time) from KMIE Reporting Station
Light Rain Light Rain  
Wind Chill: 54°   Ceiling: 3400
Heat Index: 54°   Visibility: 4mi
Dew Point: 50°   Wind: 15mph
Humidity: 86%   Direction: 160°SSE
Pressure: 29.63"   Gusts: 22mph
Location:  40.2763°N, 85.3769°W
Report Text: KMIE 231953Z 16013G19KT 4SM -RA BR SCT030 BKN034 OVC043 12/10 A2963 RMK AO2 SLP032 P0008 T01220100
Loading
Personal Weather Stations






























Interactive Weather Map New forecast layout! Learn more

10-Day Weather Forecast

Advertisements
Track Severe Weather on mobile